Time,TemperatureF,DewpointF,PressureIn,WindDirection,WindDirectionDegrees,WindSpeedMPH,WindSpeedGustMPH,Humidity,HourlyPrecipIn,Conditions,Clouds,dailyrainin,SoftwareType,DateUTC
2013-10-11 00:02:00,60.3,51.3,29.92,South,182,2.0,4.0,72,0.00,,,0.00,meteohub,2013-10-11 05:02:00,
2013-10-11 00:07:00,60.3,51.3,29.91,South,182,0.0,4.0,72,0.00,,,0.00,meteohub,2013-10-11 05:07:00,
2013-10-11 00:12:00,60.3,51.3,29.91,South,182,0.0,4.0,72,0.00,,,0.00,meteohub,2013-10-11 05:12:00,
2013-10-11 00:17:00,60.3,51.6,29.91,South,182,4.0,5.0,73,0.00,,,0.00,meteohub,2013-10-11 05:17:00,
2013-10-11 00:22:00,60.3,51.6,29.91,South,182,0.0,6.0,73,0.00,,,0.00,meteohub,2013-10-11 05:22:00,
2013-10-11 00:27:00,60.1,51.4,29.91,South,182,0.0,6.0,73,0.00,,,0.00,meteohub,2013-10-11 05:27:00,
2013-10-11 00:32:00,59.9,51.3,29.91,South,182,4.0,6.0,73,0.00,,,0.00,meteohub,2013-10-11 05:32:00,
2013-10-11 00:37:00,59.7,51.4,29.91,South,182,4.0,6.0,74,0.00,,,0.00,meteohub,2013-10-11 05:37:00,
2013-10-11 00:42:00,59.7,51.4,29.91,South,182,2.0,6.0,74,0.00,,,0.00,meteohub,2013-10-11 05:42:00,
2013-10-11 00:47:00,59.7,51.4,29.91,South,182,0.0,6.0,74,0.00,,,0.00,meteohub,2013-10-11 05:47:00,
2013-10-11 00:52:00,59.7,51.4,29.91,South,182,3.0,6.0,74,0.00,,,0.00,meteohub,2013-10-11 05:52:00,
2013-10-11 00:57:00,59.7,51.4,29.91,South,182,1.0,6.0,74,0.00,,,0.00,meteohub,2013-10-11 05:57:00,
2013-10-11 01:02:00,59.5,51.3,29.91,South,182,1.0,5.0,74,0.00,,,0.00,meteohub,2013-10-11 06:02:00,
2013-10-11 01:07:00,59.5,51.3,29.91,South,182,0.0,5.0,74,0.00,,,0.00,meteohub,2013-10-11 06:07:00,
2013-10-11 01:12:00,59.4,51.4,29.91,South,182,0.0,5.0,75,0.00,,,0.00,meteohub,2013-10-11 06:12:00,
2013-10-11 01:17:00,59.4,51.4,29.91,South,182,3.0,5.0,75,0.00,,,0.00,meteohub,2013-10-11 06:17:00,
2013-10-11 01:22:00,59.4,51.4,29.91,South,182,4.0,5.0,75,0.00,,,0.00,meteohub,2013-10-11 06:22:00,
2013-10-11 01:27:00,59.2,51.3,29.91,South,182,1.0,5.0,75,0.00,,,0.00,meteohub,2013-10-11 06:27:00,
2013-10-11 01:32:00,59.2,51.3,29.91,South,182,2.0,7.0,75,0.00,,,0.00,meteohub,2013-10-11 06:32:00,
2013-10-11 01:37:00,59.0,51.1,29.91,South,178,1.0,7.0,75,0.00,,,0.00,meteohub,2013-10-11 06:37:00,
2013-10-11 01:42:00,59.0,51.1,29.91,South,176,2.0,8.0,75,0.00,,,0.00,meteohub,2013-10-11 06:42:00,
2013-10-11 01:47:00,59.0,51.4,29.91,South,177,0.0,8.0,76,0.00,,,0.00,meteohub,2013-10-11 06:47:00,
2013-10-11 01:52:00,59.0,51.4,29.91,South,177,2.0,8.0,76,0.00,,,0.00,meteohub,2013-10-11 06:52:00,
2013-10-11 01:57:00,59.0,51.4,29.91,South,184,1.0,6.0,76,0.00,,,0.00,meteohub,2013-10-11 06:57:00,
2013-10-11 02:02:00,59.0,51.4,29.91,South,184,5.0,9.0,76,0.00,,,0.00,meteohub,2013-10-11 07:02:00,
2013-10-11 02:07:00,59.0,51.4,29.91,South,173,3.0,9.0,76,0.00,,,0.00,meteohub,2013-10-11 07:07:00,
2013-10-11 02:12:00,59.0,51.4,29.91,South,180,0.0,9.0,76,0.00,,,0.00,meteohub,2013-10-11 07:12:00,
2013-10-11 02:17:00,58.8,51.3,29.91,South,181,4.0,8.0,76,0.00,,,0.00,meteohub,2013-10-11 07:17:00,
2013-10-11 02:22:00,58.8,51.3,29.91,South,180,2.0,7.0,76,0.00,,,0.00,meteohub,2013-10-11 07:22:00,
2013-10-11 02:27:00,58.6,51.1,29.91,SSW,198,1.0,7.0,76,0.00,,,0.00,meteohub,2013-10-11 07:27:00,
2013-10-11 02:32:00,58.5,50.9,29.91,South,188,2.0,10.0,76,0.00,,,0.00,meteohub,2013-10-11 07:32:00,
2013-10-11 02:37:00,58.5,51.3,29.91,South,184,0.0,10.0,77,0.00,,,0.00,meteohub,2013-10-11 07:37:00,
2013-10-11 02:42:00,58.3,51.1,29.91,South,173,0.0,9.0,77,0.00,,,0.00,meteohub,2013-10-11 07:42:00,
2013-10-11 02:47:00,57.9,50.7,29.91,South,174,0.0,6.0,77,0.00,,,0.00,meteohub,2013-10-11 07:47:00,
2013-10-11 02:52:00,57.9,50.7,29.91,South,174,0.0,6.0,77,0.00,,,0.00,meteohub,2013-10-11 07:52:00,
2013-10-11 02:57:00,57.9,51.1,29.91,South,174,0.0,5.0,78,0.00,,,0.00,meteohub,2013-10-11 07:57:00,
2013-10-11 03:02:00,57.9,51.1,29.91,South,174,2.0,6.0,78,0.00,,,0.00,meteohub,2013-10-11 08:02:00,
2013-10-11 03:07:00,57.9,51.1,29.91,South,174,2.0,6.0,78,0.00,,,0.00,meteohub,2013-10-11 08:07:00,
2013-10-11 03:12:00,58.1,51.3,29.91,South,175,0.0,5.0,78,0.00,,,0.00,meteohub,2013-10-11 08:12:00,
2013-10-11 03:17:00,58.3,51.4,29.91,South,175,4.0,6.0,78,0.00,,,0.00,meteohub,2013-10-11 08:17:00,
2013-10-11 03:22:00,58.5,51.3,29.91,South,175,0.0,6.0,77,0.00,,,0.00,meteohub,2013-10-11 08:22:00,
2013-10-11 03:27:00,58.5,51.3,29.91,South,175,0.0,9.0,77,0.00,,,0.00,meteohub,2013-10-11 08:27:00,
2013-10-11 03:32:00,58.5,51.3,29.91,South,175,1.0,9.0,77,0.00,,,0.00,meteohub,2013-10-11 08:32:00,
2013-10-11 03:37:00,58.5,51.3,29.91,South,175,3.0,5.0,77,0.00,,,0.00,meteohub,2013-10-11 08:37:00,
2013-10-11 03:42:00,58.5,51.3,29.91,South,175,0.0,5.0,77,0.00,,,0.00,meteohub,2013-10-11 08:42:00,
2013-10-11 03:47:00,58.3,51.1,29.91,South,175,4.0,5.0,77,0.00,,,0.00,meteohub,2013-10-11 08:47:00,
2013-10-11 03:52:00,58.3,51.4,29.91,South,175,0.0,4.0,78,0.00,,,0.00,meteohub,2013-10-11 08:52:00,
2013-10-11 03:57:00,58.3,51.4,29.91,South,175,4.0,6.0,78,0.00,,,0.00,meteohub,2013-10-11 08:57:00,
2013-10-11 04:02:00,58.3,51.4,29.91,South,175,2.0,6.0,78,0.00,,,0.00,meteohub,2013-10-11 09:02:00,
2013-10-11 04:07:00,58.3,51.4,29.91,South,175,1.0,6.0,78,0.00,,,0.00,meteohub,2013-10-11 09:07:00,
2013-10-11 04:12:00,58.3,51.4,29.90,South,175,0.0,5.0,78,0.00,,,0.00,meteohub,2013-10-11 09:12:00,
2013-10-11 04:17:00,57.9,51.1,29.90,South,175,0.0,5.0,78,0.00,,,0.00,meteohub,2013-10-11 09:17:00,
2013-10-11 04:22:00,57.7,50.9,29.91,South,175,2.0,4.0,78,0.00,,,0.00,meteohub,2013-10-11 09:22:00,
2013-10-11 04:27:00,57.6,51.1,29.91,South,175,0.0,4.0,79,0.00,,,0.00,meteohub,2013-10-11 09:27:00,
2013-10-11 04:32:00,57.4,50.9,29.91,South,175,0.0,4.0,79,0.00,,,0.00,meteohub,2013-10-11 09:32:00,
2013-10-11 04:37:00,57.4,51.3,29.91,South,175,1.0,5.0,80,0.00,,,0.00,meteohub,2013-10-11 09:37:00,
2013-10-11 04:42:00,57.2,51.1,29.91,South,175,0.0,5.0,80,0.00,,,0.00,meteohub,2013-10-11 09:42:00,
2013-10-11 04:47:00,57.0,50.9,29.91,South,175,1.0,5.0,80,0.00,,,0.00,meteohub,2013-10-11 09:47:00,
2013-10-11 04:52:00,56.8,50.7,29.91,South,175,0.0,4.0,80,0.00,,,0.00,meteohub,2013-10-11 09:52:00,
2013-10-11 04:57:00,56.7,50.5,29.91,South,175,1.0,4.0,80,0.00,,,0.00,meteohub,2013-10-11 09:57:00,
2013-10-11 05:02:00,56.7,50.9,29.91,South,175,2.0,5.0,81,0.00,,,0.00,meteohub,2013-10-11 10:02:00,
2013-10-11 05:06:00,56.7,50.9,29.91,South,175,1.0,5.0,81,0.00,,,0.00,meteohub,2013-10-11 10:06:00,
2013-10-11 05:12:00,56.7,50.9,29.91,South,175,1.0,5.0,81,0.00,,,0.00,meteohub,2013-10-11 10:12:00,
2013-10-11 05:17:00,56.7,50.9,29.90,South,175,0.0,6.0,81,0.00,,,0.00,meteohub,2013-10-11 10:17:00,
2013-10-11 05:22:00,56.5,50.7,29.91,South,175,1.0,6.0,81,0.00,,,0.00,meteohub,2013-10-11 10:22:00,
2013-10-11 05:27:00,56.5,51.1,29.91,South,175,0.0,6.0,82,0.00,,,0.00,meteohub,2013-10-11 10:27:00,
2013-10-11 05:32:00,56.5,51.1,29.91,South,175,0.0,5.0,82,0.00,,,0.00,meteohub,2013-10-11 10:32:00,
2013-10-11 05:37:00,56.3,50.9,29.91,South,175,0.0,5.0,82,0.00,,,0.00,meteohub,2013-10-11 10:37:00,
2013-10-11 05:42:00,56.1,50.7,29.91,South,175,2.0,5.0,82,0.00,,,0.00,meteohub,2013-10-11 10:42:00,
2013-10-11 05:47:00,56.1,50.7,29.91,South,175,0.0,5.0,82,0.00,,,0.00,meteohub,2013-10-11 10:47:00,
2013-10-11 05:51:00,55.9,50.9,29.91,South,175,2.0,5.0,83,0.00,,,0.00,meteohub,2013-10-11 10:51:00,
2013-10-11 05:56:00,55.9,50.9,29.90,South,175,0.0,4.0,83,0.00,,,0.00,meteohub,2013-10-11 10:56:00,
2013-10-11 06:01:00,55.9,50.9,29.90,South,175,0.0,4.0,83,0.00,,,0.00,meteohub,2013-10-11 11:01:00,
2013-10-11 06:06:00,55.8,50.7,29.90,South,175,3.0,4.0,83,0.00,,,0.00,meteohub,2013-10-11 11:06:00,
2013-10-11 06:11:00,55.8,50.7,29.90,South,175,3.0,3.0,83,0.00,,,0.00,meteohub,2013-10-11 11:11:00,
2013-10-11 06:16:00,55.6,50.5,29.90,South,175,3.0,3.0,83,0.00,,,0.00,meteohub,2013-10-11 11:16:00,
2013-10-11 06:21:00,55.6,50.5,29.89,South,175,0.0,3.0,83,0.00,,,0.00,meteohub,2013-10-11 11:21:00,
2013-10-11 06:26:00,55.6,50.9,29.89,South,175,0.0,6.0,84,0.00,,,0.00,meteohub,2013-10-11 11:26:00,
2013-10-11 06:31:00,55.8,51.1,29.89,South,175,0.0,6.0,84,0.00,,,0.00,meteohub,2013-10-11 11:31:00,
2013-10-11 06:36:00,55.8,51.1,29.89,South,175,2.0,6.0,84,0.00,,,0.00,meteohub,2013-10-11 11:36:00,
2013-10-11 06:41:00,55.9,51.3,29.89,South,175,0.0,5.0,84,0.00,,,0.00,meteohub,2013-10-11 11:41:00,
2013-10-11 06:46:00,55.9,51.3,29.88,South,175,3.0,6.0,84,0.00,,,0.00,meteohub,2013-10-11 11:46:00,
2013-10-11 06:52:00,56.1,51.4,29.88,South,180,2.0,7.0,84,0.00,,,0.00,meteohub,2013-10-11 11:52:00,
2013-10-11 06:57:00,56.3,51.3,29.88,SSE,163,8.0,8.0,83,0.00,,,0.00,meteohub,2013-10-11 11:57:00,
2013-10-11 07:02:00,56.5,51.4,29.88,South,186,0.0,10.0,83,0.00,,,0.00,meteohub,2013-10-11 12:02:00,
2013-10-11 07:07:00,56.7,51.6,29.88,South,179,3.0,10.0,83,0.00,,,0.00,meteohub,2013-10-11 12:07:00,
2013-10-11 07:12:00,56.7,51.6,29.88,South,180,3.0,10.0,83,0.00,,,0.00,meteohub,2013-10-11 12:12:00,
2013-10-11 07:17:00,56.7,51.6,29.88,South,184,3.0,7.0,83,0.00,,,0.00,meteohub,2013-10-11 12:17:00,
2013-10-11 07:22:00,56.7,51.6,29.87,SSE,163,2.0,7.0,83,0.00,,,0.00,meteohub,2013-10-11 12:22:00,
2013-10-11 07:27:00,56.7,51.6,29.87,SSE,163,3.0,7.0,83,0.00,,,0.00,meteohub,2013-10-11 12:27:00,
2013-10-11 07:32:00,56.7,51.6,29.88,South,179,2.0,12.0,83,0.00,,,0.00,meteohub,2013-10-11 12:32:00,
2013-10-11 07:37:00,56.5,51.4,29.88,South,172,0.0,12.0,83,0.00,,,0.00,meteohub,2013-10-11 12:37:00,
2013-10-11 07:42:00,56.5,51.4,29.88,South,187,3.0,12.0,83,0.00,,,0.00,meteohub,2013-10-11 12:42:00,
2013-10-11 07:47:00,56.5,51.4,29.88,South,171,4.0,10.0,83,0.00,,,0.00,meteohub,2013-10-11 12:47:00,
2013-10-11 07:52:00,56.7,51.6,29.87,South,175,0.0,9.0,83,0.00,,,0.00,meteohub,2013-10-11 12:52:00,
2013-10-11 07:57:00,56.7,51.6,29.87,South,175,0.0,9.0,83,0.00,,,0.00,meteohub,2013-10-11 12:57:00,
2013-10-11 08:02:00,56.7,51.6,29.86,South,184,2.0,10.0,83,0.00,,,0.00,meteohub,2013-10-11 13:02:00,
2013-10-11 08:07:00,56.8,51.8,29.87,SSE,161,4.0,10.0,83,0.00,,,0.00,meteohub,2013-10-11 13:07:00,
2013-10-11 08:12:00,57.2,52.2,29.86,SSW,199,7.0,10.0,83,0.00,,,0.00,meteohub,2013-10-11 13:12:00,
2013-10-11 08:17:00,57.6,52.2,29.86,South,190,5.0,11.0,82,0.00,,,0.00,meteohub,2013-10-11 13:17:00,
2013-10-11 08:22:00,57.9,52.2,29.86,SSE,167,9.0,12.0,81,0.00,,,0.00,meteohub,2013-10-11 13:22:00,
2013-10-11 08:27:00,58.3,52.5,29.86,SSE,157,4.0,12.0,81,0.00,,,0.00,meteohub,2013-10-11 13:27:00,
2013-10-11 08:32:00,58.3,52.5,29.86,South,186,10.0,12.0,81,0.00,,,0.00,meteohub,2013-10-11 13:32:00,
2013-10-11 08:37:00,58.5,52.3,29.85,South,175,4.0,12.0,80,0.00,,,0.00,meteohub,2013-10-11 13:37:00,
2013-10-11 08:42:00,58.6,52.5,29.85,South,171,6.0,12.0,80,0.00,,,0.00,meteohub,2013-10-11 13:42:00,
2013-10-11 08:47:00,59.0,53.2,29.85,South,182,4.0,12.0,81,0.00,,,0.00,meteohub,2013-10-11 13:47:00,
2013-10-11 08:52:00,59.7,53.2,29.85,South,178,6.0,12.0,79,0.00,,,0.00,meteohub,2013-10-11 13:52:00,
2013-10-11 08:57:00,60.4,53.6,29.85,SSW,205,9.0,12.0,78,0.00,,,0.00,meteohub,2013-10-11 13:57:00,
2013-10-11 09:02:00,61.0,53.8,29.85,SSW,196,6.0,12.0,77,0.00,,,0.00,meteohub,2013-10-11 14:02:00,
2013-10-11 09:07:00,61.2,53.6,29.84,South,169,0.0,12.0,76,0.00,,,0.00,meteohub,2013-10-11 14:07:00,
2013-10-11 09:12:00,61.9,54.3,29.84,South,169,3.0,12.0,76,0.00,,,0.00,meteohub,2013-10-11 14:12:00,
2013-10-11 09:17:00,62.4,54.3,29.84,South,183,5.0,12.0,75,0.00,,,0.00,meteohub,2013-10-11 14:17:00,
2013-10-11 09:22:00,63.0,54.1,29.84,SSW,192,5.0,12.0,73,0.00,,,0.00,meteohub,2013-10-11 14:22:00,
2013-10-11 09:27:00,63.3,54.5,29.84,South,185,5.0,12.0,73,0.00,,,0.00,meteohub,2013-10-11 14:27:00,
2013-10-11 09:32:00,63.7,54.9,29.84,SSW,203,5.0,12.0,73,0.00,,,0.00,meteohub,2013-10-11 14:32:00,
2013-10-11 09:37:00,64.0,55.2,29.83,SSE,168,4.0,11.0,73,0.00,,,0.00,meteohub,2013-10-11 14:37:00,
2013-10-11 09:42:00,64.6,55.4,29.83,South,170,4.0,11.0,72,0.00,,,0.00,meteohub,2013-10-11 14:42:00,
2013-10-11 09:47:00,64.9,55.4,29.83,SSE,167,9.0,11.0,71,0.00,,,0.00,meteohub,2013-10-11 14:47:00,
2013-10-11 09:52:00,65.5,55.4,29.83,SSE,163,3.0,12.0,70,0.00,,,0.00,meteohub,2013-10-11 14:52:00,
2013-10-11 09:57:00,65.7,55.6,29.83,SSE,161,4.0,14.0,70,0.00,,,0.00,meteohub,2013-10-11 14:57:00,
2013-10-11 10:02:00,66.4,56.3,29.83,South,176,5.0,14.0,70,0.00,,,0.00,meteohub,2013-10-11 15:02:00,
2013-10-11 10:07:00,66.7,56.3,29.83,SSW,197,3.0,14.0,69,0.00,,,0.00,meteohub,2013-10-11 15:07:00,
2013-10-11 10:12:00,67.3,56.3,29.83,SSW,203,4.0,14.0,68,0.00,,,0.00,meteohub,2013-10-11 15:12:00,
2013-10-11 10:17:00,67.5,56.5,29.82,SSE,165,3.0,14.0,68,0.00,,,0.00,meteohub,2013-10-11 15:17:00,
2013-10-11 10:22:00,67.8,56.8,29.81,South,188,1.0,14.0,68,0.00,,,0.00,meteohub,2013-10-11 15:22:00,
2013-10-11 10:27:00,68.4,57.0,29.81,SSW,198,6.0,13.0,67,0.00,,,0.00,meteohub,2013-10-11 15:27:00,
2013-10-11 10:32:00,68.7,56.8,29.80,SSE,153,9.0,13.0,66,0.00,,,0.00,meteohub,2013-10-11 15:32:00,
2013-10-11 10:37:00,68.9,56.7,29.80,South,184,6.0,13.0,65,0.00,,,0.00,meteohub,2013-10-11 15:37:00,
2013-10-11 10:42:00,69.1,57.2,29.80,South,185,4.0,15.0,66,0.00,,,0.00,meteohub,2013-10-11 15:42:00,
2013-10-11 10:47:00,69.3,57.0,29.80,SSW,202,6.0,15.0,65,0.00,,,0.00,meteohub,2013-10-11 15:47:00,
2013-10-11 10:52:00,69.4,57.2,29.80,South,177,9.0,17.0,65,0.00,,,0.00,meteohub,2013-10-11 15:52:00,
2013-10-11 10:57:00,70.0,57.2,29.79,South,178,2.0,17.0,64,0.00,,,0.00,meteohub,2013-10-11 15:57:00,
2013-10-11 11:02:00,70.3,57.6,29.79,South,177,10.0,14.0,64,0.00,,,0.00,meteohub,2013-10-11 16:02:00,
2013-10-11 11:07:00,70.5,57.4,29.79,South,188,8.0,18.0,63,0.00,,,0.00,meteohub,2013-10-11 16:07:00,
2013-10-11 11:12:00,70.7,57.6,29.79,SSW,202,11.0,19.0,63,0.00,,,0.00,meteohub,2013-10-11 16:12:00,
2013-10-11 11:17:00,70.9,57.2,29.79,South,173,7.0,19.0,62,0.00,,,0.00,meteohub,2013-10-11 16:17:00,
2013-10-11 11:22:00,71.2,57.6,29.78,SW,215,5.0,21.0,62,0.00,,,0.00,meteohub,2013-10-11 16:22:00,
2013-10-11 11:27:00,71.8,58.1,29.77,South,187,4.0,21.0,62,0.00,,,0.00,meteohub,2013-10-11 16:27:00,
2013-10-11 11:32:00,72.0,57.4,29.78,SSW,213,14.0,20.0,60,0.00,,,0.00,meteohub,2013-10-11 16:32:00,
2013-10-11 11:37:00,71.8,57.2,29.77,South,175,13.0,20.0,60,0.00,,,0.00,meteohub,2013-10-11 16:37:00,
2013-10-11 11:42:00,71.2,57.0,29.77,South,180,13.0,20.0,61,0.00,,,0.00,meteohub,2013-10-11 16:42:00,
2013-10-11 11:47:00,71.6,57.0,29.77,SSW,210,15.0,22.0,60,0.00,,,0.00,meteohub,2013-10-11 16:47:00,
2013-10-11 11:52:00,72.1,57.6,29.77,SW,234,10.0,23.0,60,0.00,,,0.00,meteohub,2013-10-11 16:52:00,
2013-10-11 11:57:00,72.7,57.9,29.76,South,189,16.0,23.0,60,0.00,,,0.00,meteohub,2013-10-11 16:57:00,
2013-10-11 12:02:00,72.7,57.6,29.75,South,171,7.0,24.0,59,0.00,,,0.00,meteohub,2013-10-11 17:02:00,
2013-10-11 12:07:00,73.0,57.4,29.75,SW,224,9.0,24.0,58,0.00,,,0.00,meteohub,2013-10-11 17:07:00,
2013-10-11 12:12:00,72.9,57.2,29.75,SW,223,10.0,24.0,58,0.00,,,0.00,meteohub,2013-10-11 17:12:00,
2013-10-11 12:16:00,72.7,56.5,29.75,SSW,205,11.0,22.0,57,0.00,,,0.00,meteohub,2013-10-11 17:16:00,
2013-10-11 12:22:00,72.1,56.5,29.75,SW,227,16.0,22.0,58,0.00,,,0.00,meteohub,2013-10-11 17:22:00,
2013-10-11 12:27:00,72.1,56.5,29.75,SW,222,11.0,28.0,58,0.00,,,0.00,meteohub,2013-10-11 17:27:00,
2013-10-11 12:32:00,73.0,56.8,29.74,SW,217,7.0,28.0,57,0.00,,,0.00,meteohub,2013-10-11 17:32:00,
2013-10-11 12:37:00,73.0,56.5,29.73,SSE,149,5.0,25.0,56,0.00,,,0.00,meteohub,2013-10-11 17:37:00,
2013-10-11 12:42:00,72.9,56.3,29.73,SSW,201,10.0,29.0,56,0.00,,,0.00,meteohub,2013-10-11 17:42:00,
2013-10-11 12:47:00,72.9,56.7,29.74,SSW,211,5.0,29.0,57,0.00,,,0.00,meteohub,2013-10-11 17:47:00,
2013-10-11 12:52:00,73.2,55.6,29.74,West,259,11.0,29.0,54,0.00,,,0.00,meteohub,2013-10-11 17:52:00,
2013-10-11 12:57:00,73.2,55.6,29.73,SSW,209,18.0,20.0,54,0.00,,,0.00,meteohub,2013-10-11 17:57:00,
2013-10-11 13:02:00,72.7,55.0,29.73,SSW,207,15.0,24.0,54,0.00,,,0.00,meteohub,2013-10-11 18:02:00,
2013-10-11 13:07:00,72.5,54.9,29.73,SW,228,14.0,24.0,54,0.00,,,0.00,meteohub,2013-10-11 18:07:00,
2013-10-11 13:12:00,72.3,55.8,29.73,SSW,206,14.0,32.0,56,0.00,,,0.00,meteohub,2013-10-11 18:12:00,
2013-10-11 13:17:00,72.3,55.2,29.74,SW,223,19.0,32.0,55,0.00,,,0.00,meteohub,2013-10-11 18:17:00,
2013-10-11 13:22:00,72.0,54.9,29.72,SW,215,14.0,32.0,55,0.00,,,0.00,meteohub,2013-10-11 18:22:00,
2013-10-11 13:27:00,71.8,55.2,29.72,SSW,213,13.0,28.0,56,0.00,,,0.00,meteohub,2013-10-11 18:27:00,
2013-10-11 13:32:00,71.4,55.9,29.72,SSW,204,10.0,31.0,58,0.00,,,0.00,meteohub,2013-10-11 18:32:00,
2013-10-11 13:37:00,71.4,55.9,29.71,South,173,10.0,31.0,58,0.00,,,0.00,meteohub,2013-10-11 18:37:00,
2013-10-11 13:42:00,71.4,55.9,29.71,SSW,199,9.0,24.0,58,0.00,,,0.00,meteohub,2013-10-11 18:42:00,
2013-10-11 13:47:00,71.4,55.9,29.71,SW,227,12.0,21.0,58,0.00,,,0.00,meteohub,2013-10-11 18:47:00,
2013-10-11 13:51:00,71.8,55.8,29.71,SSW,200,12.0,21.0,57,0.00,,,0.00,meteohub,2013-10-11 18:51:00,
2013-10-11 13:56:00,72.0,56.3,29.70,South,179,5.0,21.0,58,0.00,,,0.00,meteohub,2013-10-11 18:56:00,
2013-10-11 14:01:00,72.1,56.1,29.70,WSW,240,22.0,22.0,57,0.00,,,0.00,meteohub,2013-10-11 19:01:00,
2013-10-11 14:06:00,72.3,55.8,29.70,SSW,212,13.0,26.0,56,0.00,,,0.00,meteohub,2013-10-11 19:06:00,
2013-10-11 14:11:00,72.3,56.3,29.70,SSW,207,17.0,26.0,57,0.00,,,0.00,meteohub,2013-10-11 19:11:00,
2013-10-11 14:16:00,72.3,56.3,29.69,SW,214,17.0,26.0,57,0.00,,,0.00,meteohub,2013-10-11 19:16:00,
2013-10-11 14:21:00,72.3,56.7,29.67,SSW,211,9.0,23.0,58,0.00,,,0.00,meteohub,2013-10-11 19:21:00,
2013-10-11 14:27:00,73.2,56.7,29.67,SSW,209,19.0,23.0,56,0.00,,,0.00,meteohub,2013-10-11 19:27:00,
2013-10-11 14:32:00,73.6,56.5,29.68,SSW,206,10.0,23.0,55,0.00,,,0.00,meteohub,2013-10-11 19:32:00,
2013-10-11 14:37:00,73.6,56.8,29.68,SW,224,17.0,23.0,56,0.00,,,0.00,meteohub,2013-10-11 19:37:00,
2013-10-11 14:42:00,73.9,56.8,29.68,SW,219,10.0,23.0,55,0.00,,,0.00,meteohub,2013-10-11 19:42:00,
2013-10-11 14:47:00,73.6,55.9,29.68,SSW,195,17.0,24.0,54,0.00,,,0.00,meteohub,2013-10-11 19:47:00,
2013-10-11 14:52:00,72.9,56.3,29.67,SSW,211,9.0,24.0,56,0.00,,,0.00,meteohub,2013-10-11 19:52:00,
2013-10-11 14:57:00,72.7,55.6,29.68,SSW,200,10.0,24.0,55,0.00,,,0.00,meteohub,2013-10-11 19:57:00,
2013-10-11 15:02:00,72.7,55.6,29.67,SW,221,10.0,34.0,55,0.00,,,0.00,meteohub,2013-10-11 20:02:00,
2013-10-11 15:07:00,72.7,55.6,29.66,WSW,240,13.0,34.0,55,0.00,,,0.00,meteohub,2013-10-11 20:07:00,
2013-10-11 15:12:00,73.0,55.9,29.66,SSW,200,6.0,34.0,55,0.00,,,0.00,meteohub,2013-10-11 20:12:00,
2013-10-11 15:17:00,73.2,56.1,29.67,SW,215,11.0,23.0,55,0.00,,,0.00,meteohub,2013-10-11 20:17:00,
2013-10-11 15:22:00,73.2,56.1,29.67,South,180,14.0,26.0,55,0.00,,,0.00,meteohub,2013-10-11 20:22:00,
2013-10-11 15:27:00,73.8,56.7,29.66,SSW,211,18.0,26.0,55,0.00,,,0.00,meteohub,2013-10-11 20:27:00,
2013-10-11 15:32:00,74.1,55.9,29.66,SSW,209,15.0,24.0,53,0.00,,,0.00,meteohub,2013-10-11 20:32:00,
2013-10-11 15:37:00,73.9,55.8,29.67,SW,222,19.0,28.0,53,0.00,,,0.00,meteohub,2013-10-11 20:37:00,
2013-10-11 15:42:00,73.8,56.1,29.67,SSW,205,20.0,28.0,54,0.00,,,0.00,meteohub,2013-10-11 20:42:00,
2013-10-11 15:47:00,73.6,55.9,29.67,South,183,10.0,28.0,54,0.00,,,0.00,meteohub,2013-10-11 20:47:00,
2013-10-11 15:52:00,73.4,55.8,29.67,SSW,202,10.0,32.0,54,0.00,,,0.00,meteohub,2013-10-11 20:52:00,
2013-10-11 15:57:00,73.4,55.8,29.67,SSW,192,17.0,32.0,54,0.00,,,0.00,meteohub,2013-10-11 20:57:00,
2013-10-11 16:02:00,73.4,55.8,29.67,SSW,195,11.0,32.0,54,0.00,,,0.00,meteohub,2013-10-11 21:02:00,
2013-10-11 16:07:00,73.4,55.8,29.66,SW,236,10.0,22.0,54,0.00,,,0.00,meteohub,2013-10-11 21:07:00,
2013-10-11 16:12:00,73.4,56.3,29.67,South,181,12.0,22.0,55,0.00,,,0.00,meteohub,2013-10-11 21:12:00,
2013-10-11 16:17:00,73.2,55.6,29.66,SSW,205,6.0,22.0,54,0.00,,,0.00,meteohub,2013-10-11 21:17:00,
2013-10-11 16:22:00,73.4,55.8,29.67,SW,222,23.0,24.0,54,0.00,,,0.00,meteohub,2013-10-11 21:22:00,
2013-10-11 16:27:00,73.4,55.8,29.67,SSE,168,15.0,24.0,54,0.00,,,0.00,meteohub,2013-10-11 21:27:00,
2013-10-11 16:32:00,73.4,55.8,29.68,South,189,15.0,26.0,54,0.00,,,0.00,meteohub,2013-10-11 21:32:00,
2013-10-11 16:37:00,73.2,55.6,29.68,SW,222,17.0,26.0,54,0.00,,,0.00,meteohub,2013-10-11 21:37:00,
2013-10-11 16:42:00,73.2,55.6,29.67,SW,218,10.0,26.0,54,0.00,,,0.00,meteohub,2013-10-11 21:42:00,
2013-10-11 16:47:00,73.2,56.1,29.67,South,186,13.0,24.0,55,0.00,,,0.00,meteohub,2013-10-11 21:47:00,
2013-10-11 16:52:00,73.2,56.1,29.67,SW,232,7.0,24.0,55,0.00,,,0.00,meteohub,2013-10-11 21:52:00,
2013-10-11 16:57:00,73.4,56.3,29.68,SSW,207,17.0,24.0,55,0.00,,,0.00,meteohub,2013-10-11 21:57:00,
2013-10-11 17:02:00,73.4,56.7,29.67,SSW,208,12.0,22.0,56,0.00,,,0.00,meteohub,2013-10-11 22:02:00,
2013-10-11 17:07:00,73.4,56.7,29.68,SW,219,12.0,24.0,56,0.00,,,0.00,meteohub,2013-10-11 22:07:00,
2013-10-11 17:12:00,73.2,56.7,29.68,SSW,211,12.0,24.0,56,0.00,,,0.00,meteohub,2013-10-11 22:12:00,
2013-10-11 17:17:00,73.2,56.7,29.68,South,191,12.0,24.0,56,0.00,,,0.00,meteohub,2013-10-11 22:17:00,
2013-10-11 17:22:00,73.2,56.7,29.68,WSW,242,18.0,21.0,56,0.00,,,0.00,meteohub,2013-10-11 22:22:00,
2013-10-11 17:27:00,73.0,56.5,29.68,WSW,257,10.0,27.0,56,0.00,,,0.00,meteohub,2013-10-11 22:27:00,
2013-10-11 17:32:00,73.0,56.5,29.69,SSW,205,6.0,27.0,56,0.00,,,0.00,meteohub,2013-10-11 22:32:00,
2013-10-11 17:37:00,72.9,56.3,29.69,SW,215,12.0,21.0,56,0.00,,,0.00,meteohub,2013-10-11 22:37:00,
2013-10-11 17:42:00,73.0,56.8,29.69,SW,236,14.0,21.0,57,0.00,,,0.00,meteohub,2013-10-11 22:42:00,
2013-10-11 17:47:00,73.0,56.8,29.69,SW,229,24.0,30.0,57,0.00,,,0.00,meteohub,2013-10-11 22:47:00,
2013-10-11 17:52:00,72.9,56.7,29.70,SW,217,13.0,30.0,57,0.00,,,0.00,meteohub,2013-10-11 22:52:00,
2013-10-11 17:57:00,72.7,57.0,29.70,SSW,213,15.0,30.0,58,0.00,,,0.00,meteohub,2013-10-11 22:57:00,
2013-10-11 18:02:00,72.5,56.8,29.70,SW,214,17.0,26.0,58,0.00,,,0.00,meteohub,2013-10-11 23:02:00,
2013-10-11 18:07:00,72.3,56.7,29.70,South,186,11.0,27.0,58,0.00,,,0.00,meteohub,2013-10-11 23:07:00,
2013-10-11 18:12:00,72.1,57.0,29.70,SSW,195,11.0,27.0,59,0.00,,,0.00,meteohub,2013-10-11 23:12:00,
2013-10-11 18:17:00,72.1,57.0,29.71,West,264,8.0,27.0,59,0.00,,,0.00,meteohub,2013-10-11 23:17:00,
2013-10-11 18:22:00,72.0,57.4,29.70,SW,217,11.0,25.0,60,0.00,,,0.00,meteohub,2013-10-11 23:22:00,
2013-10-11 18:27:00,71.8,57.6,29.71,SW,233,6.0,25.0,61,0.00,,,0.00,meteohub,2013-10-11 23:27:00,
2013-10-11 18:32:00,71.6,57.4,29.71,SSW,199,8.0,25.0,61,0.00,,,0.00,meteohub,2013-10-11 23:32:00,
2013-10-11 18:37:00,71.4,57.7,29.71,SW,221,5.0,18.0,62,0.00,,,0.00,meteohub,2013-10-11 23:37:00,
2013-10-11 18:42:00,71.2,57.6,29.71,WSW,238,11.0,18.0,62,0.00,,,0.00,meteohub,2013-10-11 23:42:00,
2013-10-11 18:47:00,71.1,57.7,29.71,SW,224,14.0,23.0,63,0.00,,,0.00,meteohub,2013-10-11 23:47:00,
2013-10-11 18:52:00,71.1,57.7,29.70,SSW,198,8.0,23.0,63,0.00,,,0.00,meteohub,2013-10-11 23:52:00,
2013-10-11 18:57:00,70.9,58.1,29.70,SSW,211,11.0,23.0,64,0.00,,,0.00,meteohub,2013-10-11 23:57:00,
2013-10-11 19:02:00,70.7,58.3,29.70,SSW,202,6.0,22.0,65,0.00,,,0.00,meteohub,2013-10-12 00:02:00,
2013-10-11 19:07:00,70.5,58.1,29.70,WSW,238,14.0,22.0,65,0.00,,,0.00,meteohub,2013-10-12 00:07:00,
2013-10-11 19:12:00,70.3,58.5,29.70,SW,214,14.0,22.0,66,0.00,,,0.00,meteohub,2013-10-12 00:12:00,
2013-10-11 19:17:00,70.2,58.6,29.70,SSW,202,12.0,22.0,67,0.00,,,0.00,meteohub,2013-10-12 00:17:00,
2013-10-11 19:22:00,70.0,59.0,29.70,SW,217,6.0,22.0,68,0.00,,,0.00,meteohub,2013-10-12 00:22:00,
2013-10-11 19:27:00,69.8,59.2,29.70,SSW,213,6.0,22.0,69,0.00,,,0.00,meteohub,2013-10-12 00:27:00,
2013-10-11 19:32:00,69.6,59.4,29.70,South,178,13.0,20.0,70,0.00,,,0.00,meteohub,2013-10-12 00:32:00,
2013-10-11 19:37:00,69.6,59.7,29.70,SW,219,14.0,20.0,71,0.00,,,0.00,meteohub,2013-10-12 00:37:00,
2013-10-11 19:42:00,69.4,60.1,29.70,SSW,213,10.0,20.0,72,0.00,,,0.00,meteohub,2013-10-12 00:42:00,
2013-10-11 19:47:00,69.4,60.1,29.70,SW,217,15.0,19.0,72,0.00,,,0.00,meteohub,2013-10-12 00:47:00,
2013-10-11 19:52:00,69.4,60.4,29.70,SSW,207,24.0,24.0,73,0.00,,,0.00,meteohub,2013-10-12 00:52:00,
2013-10-11 19:57:00,69.6,60.6,29.69,SSW,209,14.0,28.0,73,0.00,,,0.00,meteohub,2013-10-12 00:57:00,
2013-10-11 20:02:00,69.4,60.8,29.69,SSW,211,13.0,28.0,74,0.00,,,0.00,meteohub,2013-10-12 01:02:00,
2013-10-11 20:07:00,69.4,60.8,29.69,SW,223,17.0,28.0,74,0.00,,,0.00,meteohub,2013-10-12 01:07:00,
2013-10-11 20:12:00,69.3,61.0,29.68,SW,217,7.0,23.0,75,0.00,,,0.00,meteohub,2013-10-12 01:12:00,
2013-10-11 20:17:00,69.1,60.8,29.68,SSW,200,13.0,23.0,75,0.00,,,0.00,meteohub,2013-10-12 01:17:00,
2013-10-11 20:22:00,69.1,61.2,29.68,WSW,239,16.0,26.0,76,0.00,,,0.00,meteohub,2013-10-12 01:22:00,
2013-10-11 20:27:00,69.1,61.2,29.68,SW,215,11.0,26.0,76,0.00,,,0.00,meteohub,2013-10-12 01:27:00,
2013-10-11 20:32:00,68.7,60.8,29.68,SSW,197,10.0,26.0,76,0.00,,,0.00,meteohub,2013-10-12 01:32:00,
2013-10-11 20:37:00,68.7,60.8,29.68,SW,225,14.0,26.0,76,0.00,,,0.00,meteohub,2013-10-12 01:37:00,
2013-10-11 20:42:00,68.7,60.8,29.67,South,184,9.0,25.0,76,0.00,,,0.00,meteohub,2013-10-12 01:42:00,
2013-10-11 20:47:00,68.7,60.8,29.67,SW,221,13.0,25.0,76,0.00,,,0.00,meteohub,2013-10-12 01:47:00,
2013-10-11 20:52:00,68.7,60.8,29.68,SSW,204,10.0,25.0,76,0.00,,,0.00,meteohub,2013-10-12 01:52:00,
2013-10-11 20:57:00,68.5,60.6,29.67,SSW,211,22.0,24.0,76,0.00,,,0.00,meteohub,2013-10-12 01:57:00,
2013-10-11 21:02:00,68.5,61.0,29.67,SW,226,15.0,28.0,77,0.00,,,0.00,meteohub,2013-10-12 02:02:00,
2013-10-11 21:07:00,68.7,61.2,29.67,SSW,202,21.0,28.0,77,0.00,,,0.00,meteohub,2013-10-12 02:07:00,
2013-10-11 21:12:00,68.7,61.2,29.67,SW,228,13.0,28.0,77,0.00,,,0.00,meteohub,2013-10-12 02:12:00,
2013-10-11 21:17:00,68.7,61.2,29.67,SW,214,18.0,28.0,77,0.00,,,0.00,meteohub,2013-10-12 02:17:00,
2013-10-11 21:22:00,68.5,61.0,29.68,WSW,244,3.0,28.0,77,0.00,,,0.00,meteohub,2013-10-12 02:22:00,
2013-10-11 21:27:00,68.7,61.2,29.68,SSW,202,14.0,21.0,77,0.00,,,0.00,meteohub,2013-10-12 02:27:00,
2013-10-11 21:32:00,68.7,61.2,29.68,SW,234,19.0,23.0,77,0.00,,,0.00,meteohub,2013-10-12 02:32:00,
2013-10-11 21:37:00,68.7,61.2,29.68,SW,217,5.0,23.0,77,0.00,,,0.00,meteohub,2013-10-12 02:37:00,
2013-10-11 21:42:00,68.7,61.5,29.68,WSW,256,11.0,23.0,78,0.00,,,0.00,meteohub,2013-10-12 02:42:00,
2013-10-11 21:47:00,68.4,61.5,29.68,SW,225,10.0,21.0,79,0.00,,,0.00,meteohub,2013-10-12 02:47:00,
2013-10-11 21:52:00,67.8,61.7,29.69,WSW,242,6.0,21.0,81,0.01,,,0.01,meteohub,2013-10-12 02:52:00,
2013-10-11 21:57:00,67.5,62.1,29.70,SW,234,10.0,21.0,83,0.01,,,0.01,meteohub,2013-10-12 02:57:00,
2013-10-11 22:02:00,66.7,61.7,29.70,SW,227,11.0,20.0,84,0.02,,,0.02,meteohub,2013-10-12 03:02:00,
2013-10-11 22:07:00,65.8,61.2,29.70,WSW,252,8.0,23.0,85,0.04,,,0.04,meteohub,2013-10-12 03:07:00,
2013-10-11 22:12:00,64.9,60.6,29.70,West,273,11.0,23.0,86,0.06,,,0.06,meteohub,2013-10-12 03:12:00,
2013-10-11 22:17:00,64.4,60.4,29.71,WSW,257,8.0,23.0,87,0.06,,,0.06,meteohub,2013-10-12 03:17:00,
2013-10-11 22:22:00,64.0,60.1,29.71,WSW,254,12.0,15.0,87,0.06,,,0.06,meteohub,2013-10-12 03:22:00,
2013-10-11 22:27:00,63.9,59.9,29.71,West,260,4.0,15.0,87,0.06,,,0.06,meteohub,2013-10-12 03:27:00,
2013-10-11 22:32:00,63.3,59.4,29.71,WSW,250,7.0,14.0,87,0.06,,,0.06,meteohub,2013-10-12 03:32:00,
2013-10-11 22:37:00,63.0,59.0,29.72,WSW,244,2.0,14.0,87,0.06,,,0.06,meteohub,2013-10-12 03:37:00,
2013-10-11 22:42:00,62.6,58.6,29.72,SW,231,4.0,14.0,87,0.06,,,0.06,meteohub,2013-10-12 03:42:00,
2013-10-11 22:47:00,62.2,58.3,29.72,SW,223,1.0,13.0,87,0.06,,,0.06,meteohub,2013-10-12 03:47:00,
2013-10-11 22:52:00,61.7,57.7,29.73,SW,229,4.0,10.0,87,0.05,,,0.06,meteohub,2013-10-12 03:52:00,
2013-10-11 22:57:00,61.2,57.2,29.73,SW,232,5.0,9.0,87,0.05,,,0.06,meteohub,2013-10-12 03:57:00,
2013-10-11 23:01:00,60.8,56.8,29.73,SW,219,9.0,9.0,87,0.03,,,0.06,meteohub,2013-10-12 04:01:00,
2013-10-11 23:02:00,60.6,56.7,29.73,WSW,246,4.0,9.0,87,0.03,,,0.06,meteohub,2013-10-12 04:02:00,
2013-10-11 23:08:00,60.3,56.3,29.73,SW,225,2.0,10.0,87,0.01,,,0.06,meteohub,2013-10-12 04:08:00,
2013-10-11 23:13:00,59.9,55.9,29.74,SW,223,5.0,10.0,87,0.00,,,0.06,meteohub,2013-10-12 04:13:00,
2013-10-11 23:18:00,59.5,55.9,29.75,WSW,242,6.0,10.0,88,0.00,,,0.06,meteohub,2013-10-12 04:18:00,
2013-10-11 23:23:00,59.5,55.9,29.75,WSW,254,2.0,12.0,88,0.00,,,0.06,meteohub,2013-10-12 04:23:00,
2013-10-11 23:28:00,59.4,55.8,29.75,WSW,256,5.0,12.0,88,0.00,,,0.06,meteohub,2013-10-12 04:28:00,
2013-10-11 23:33:00,59.0,54.9,29.75,West,267,9.0,12.0,86,0.00,,,0.06,meteohub,2013-10-12 04:33:00,
2013-10-11 23:38:00,59.0,54.1,29.75,West,263,2.0,17.0,84,0.00,,,0.06,meteohub,2013-10-12 04:38:00,
2013-10-11 23:43:00,58.8,53.6,29.75,West,275,1.0,17.0,83,0.00,,,0.06,meteohub,2013-10-12 04:43:00,
2013-10-11 23:48:00,58.3,52.9,29.75,West,261,5.0,17.0,82,0.00,,,0.06,meteohub,2013-10-12 04:48:00,
2013-10-11 23:53:00,57.9,52.2,29.75,West,276,9.0,15.0,81,0.00,,,0.06,meteohub,2013-10-12 04:53:00,
2013-10-11 23:58:00,57.6,51.4,29.76,West,272,6.0,15.0,80,0.00,,,0.06,meteohub,2013-10-12 04:58:00,